createdAt,value
2022-08-17T00:02:26.439Z,97973.60
2022-08-17T00:04:55.175Z,97974.45
2022-08-17T00:07:23.282Z,97975.09
2022-08-17T00:09:50.476Z,97972.83
2022-08-17T00:12:43.564Z,97978.67
2022-08-17T00:15:10.328Z,97978.52
2022-08-17T00:17:38.456Z,97978.73
2022-08-17T00:20:06.324Z,97975.22
2022-08-17T00:22:36.473Z,97976.36
2022-08-17T00:25:07.569Z,97976.86
2022-08-17T00:27:35.745Z,97978.23
2022-08-17T00:30:04.331Z,97974.41
2022-08-17T00:33:22.838Z,97978.41
2022-08-17T00:35:27.800Z,97974.80
2022-08-17T00:37:55.666Z,97979.58
2022-08-17T00:40:24.760Z,97979.33
2022-08-17T00:42:52.155Z,97976.02
2022-08-17T00:45:20.618Z,97977.70
2022-08-17T00:47:49.627Z,97975.30
2022-08-17T00:50:19.082Z,97976.83
2022-08-17T00:52:54.876Z,97979.84
2022-08-17T00:55:23.011Z,97982.71
2022-08-17T00:57:55.531Z,97983.16
2022-08-17T01:00:28.288Z,97984.53
2022-08-17T01:03:00.058Z,97982.55
2022-08-17T01:05:31.050Z,97981.61
2022-08-17T01:08:00.241Z,97981.27
2022-08-17T01:10:58.384Z,97980.86
2022-08-17T01:13:25.267Z,97985.17
2022-08-17T01:15:59.315Z,97982.14
2022-08-17T01:18:27.456Z,97982.44
2022-08-17T01:20:56.178Z,97981.27
2022-08-17T01:23:25.352Z,97981.13
2022-08-17T01:25:56.266Z,97983.77
2022-08-17T01:28:33.500Z,97987.63
2022-08-17T01:31:13.134Z,97990.30
2022-08-17T01:33:40.406Z,97992.70
2022-08-17T01:36:08.403Z,97998.21
2022-08-17T01:38:36.825Z,97999.38
2022-08-17T01:41:09.681Z,97997.38
2022-08-17T01:43:46.193Z,97997.63
2022-08-17T01:46:21.371Z,97996.98
2022-08-17T01:48:48.608Z,98002.13
2022-08-17T01:51:16.273Z,98001.98
2022-08-17T01:53:49.178Z,98008.69
2022-08-17T01:56:20.077Z,98010.23
2022-08-17T01:58:47.377Z,98012.30
2022-08-17T02:01:20.271Z,98017.60
2022-08-17T02:03:59.488Z,98020.20
2022-08-17T02:06:31.643Z,98015.79
2022-08-17T02:09:16.977Z,98014.28
2022-08-17T02:11:44.692Z,98010.00
2022-08-17T02:14:13.613Z,98005.89
2022-08-17T02:16:41.453Z,98009.48
2022-08-17T02:19:16.065Z,98010.16
2022-08-17T02:21:47.154Z,98010.68
2022-08-17T02:25:00.688Z,98008.67
2022-08-17T02:27:07.767Z,98005.11
2022-08-17T02:29:34.695Z,97997.79
2022-08-17T02:32:01.993Z,98001.50
2022-08-17T02:34:30.324Z,98000.44
2022-08-17T02:36:57.290Z,98001.69
2022-08-17T02:39:24.354Z,98005.68
2022-08-17T02:42:01.752Z,98008.55
2022-08-17T02:44:39.057Z,98003.92
2022-08-17T02:47:09.492Z,98003.30
2022-08-17T02:49:36.800Z,98003.92
2022-08-17T02:52:05.850Z,98004.39
2022-08-17T02:54:40.445Z,98005.42
2022-08-17T02:57:09.498Z,98002.73
2022-08-17T02:59:36.507Z,98005.41
2022-08-17T03:02:05.090Z,98003.23
2022-08-17T03:04:33.804Z,98006.75
2022-08-17T03:07:03.727Z,98012.81
2022-08-17T03:09:31.105Z,98012.66
2022-08-17T03:12:14.258Z,98005.69
2022-08-17T03:14:43.370Z,98009.18
2022-08-17T03:17:12.834Z,98007.96
2022-08-17T03:19:45.096Z,98010.55
2022-08-17T03:22:35.537Z,98011.44
2022-08-17T03:24:59.015Z,98011.90
2022-08-17T03:27:26.342Z,98012.73
2022-08-17T03:29:53.476Z,98015.40
2022-08-17T03:32:20.879Z,98021.78
2022-08-17T03:34:47.939Z,98028.29
2022-08-17T03:37:15.187Z,98030.65
2022-08-17T03:39:43.063Z,98030.30
2022-08-17T03:42:31.612Z,98034.58
2022-08-17T03:45:01.425Z,98029.42
2022-08-17T03:47:44.693Z,98028.89
2022-08-17T03:50:28.057Z,98029.66
2022-08-17T03:53:11.851Z,98033.81
2022-08-17T03:55:55.159Z,98035.30
2022-08-17T03:58:22.353Z,98043.42
2022-08-17T04:00:50.963Z,98049.50
2022-08-17T04:03:18.865Z,98054.52
2022-08-17T04:05:45.732Z,98058.86
2022-08-17T04:08:12.946Z,98061.15
2022-08-17T04:10:44.977Z,98061.39
2022-08-17T04:13:13.176Z,98058.41
2022-08-17T04:15:40.505Z,98062.42
2022-08-17T04:18:07.724Z,98067.41
2022-08-17T04:20:37.994Z,98059.83
2022-08-17T04:23:09.860Z,98058.81
2022-08-17T04:25:40.242Z,98060.14
2022-08-17T04:28:09.022Z,98061.42
2022-08-17T04:30:45.391Z,98060.28
2022-08-17T04:33:15.788Z,98056.61
2022-08-17T04:35:45.886Z,98057.17
2022-08-17T04:38:15.921Z,98062.64
2022-08-17T04:40:59.717Z,98061.02
2022-08-17T04:43:27.928Z,98065.00
2022-08-17T04:45:59.559Z,98069.88
2022-08-17T04:48:35.388Z,98075.66
2022-08-17T04:51:05.937Z,98082.00
2022-08-17T04:53:32.967Z,98080.15
2022-08-17T04:55:59.972Z,98076.20
2022-08-17T04:58:26.966Z,98072.88
2022-08-17T05:00:53.865Z,98079.08
2022-08-17T05:03:20.736Z,98083.48
2022-08-17T05:05:50.007Z,98084.94
2022-08-17T05:08:19.960Z,98083.72
2022-08-17T05:10:48.139Z,98077.58
2022-08-17T05:13:18.356Z,98074.21
2022-08-17T05:15:48.065Z,98077.41
2022-08-17T05:18:16.967Z,98077.02
2022-08-17T05:20:44.436Z,98078.79
2022-08-17T05:23:14.102Z,98073.63
2022-08-17T05:25:47.763Z,98084.64
2022-08-17T05:28:15.420Z,98086.39
2022-08-17T05:30:44.870Z,98084.84
2022-08-17T05:33:20.421Z,98079.74
2022-08-17T05:35:50.246Z,98087.19
2022-08-17T05:38:19.402Z,98090.85
2022-08-17T05:40:46.782Z,98092.37
2022-08-17T05:43:18.323Z,98088.81
2022-08-17T05:46:09.490Z,98073.76
2022-08-17T05:48:40.826Z,98087.45
2022-08-17T05:51:23.752Z,98085.73
2022-08-17T05:54:06.577Z,98085.60
2022-08-17T05:56:48.245Z,98080.95
2022-08-17T05:59:22.118Z,98082.89
2022-08-17T06:02:03.147Z,98079.04
2022-08-17T06:04:54.483Z,98077.91
2022-08-17T06:07:26.138Z,98077.23
2022-08-17T06:09:57.131Z,98085.75
2022-08-17T06:12:41.319Z,98088.01
2022-08-17T06:15:27.769Z,98091.23
2022-08-17T06:17:59.399Z,98094.49
2022-08-17T06:20:32.389Z,98092.61
2022-08-17T06:23:07.488Z,98085.84
2022-08-17T06:25:39.350Z,98083.84
2022-08-17T06:28:13.694Z,98081.80
2022-08-17T06:30:58.613Z,98081.12
2022-08-17T06:33:35.749Z,98075.58
2022-08-17T06:36:18.546Z,98077.80
2022-08-17T06:39:01.636Z,98080.52
2022-08-17T06:41:37.894Z,98083.73
2022-08-17T06:44:43.463Z,98086.02
2022-08-17T06:47:13.784Z,98085.30
2022-08-17T06:49:55.204Z,98085.39
2022-08-17T06:52:55.676Z,98081.52
2022-08-17T06:55:34.540Z,98074.55
2022-08-17T06:58:15.792Z,98079.52
2022-08-17T07:00:47.504Z,98078.64
2022-08-17T07:03:21.244Z,98082.72
2022-08-17T07:05:53.016Z,98077.80
2022-08-17T07:08:38.278Z,98081.98
2022-08-17T07:11:14.543Z,98085.89
2022-08-17T07:13:51.345Z,98087.98
2022-08-17T07:16:25.648Z,98088.02
2022-08-17T07:18:54.859Z,98097.91
2022-08-17T07:21:28.982Z,98095.73
2022-08-17T07:24:28.134Z,98096.64
2022-08-17T07:27:08.897Z,98097.25
2022-08-17T07:29:41.737Z,98090.80
2022-08-17T07:32:11.655Z,98092.34
2022-08-17T07:35:00.068Z,98087.94
2022-08-17T07:37:27.457Z,98089.98
2022-08-17T07:40:15.568Z,98085.75
2022-08-17T07:42:45.135Z,98084.84
2022-08-17T07:45:35.348Z,98085.52
2022-08-17T07:48:17.981Z,98079.75
2022-08-17T07:50:49.740Z,98082.26
2022-08-17T07:53:24.711Z,98088.29
2022-08-17T07:55:54.005Z,98085.57
2022-08-17T07:58:23.982Z,98084.56
2022-08-17T08:01:11.238Z,98089.67
2022-08-17T08:03:43.552Z,98091.40
2022-08-17T08:06:21.966Z,98091.31
2022-08-17T08:08:53.912Z,98085.14
2022-08-17T08:11:39.249Z,98086.98
2022-08-17T08:14:29.567Z,98087.84
2022-08-17T08:17:04.100Z,98085.20
2022-08-17T08:19:33.919Z,98085.98
2022-08-17T08:22:07.776Z,98083.77
2022-08-17T08:25:07.532Z,98086.04
2022-08-17T08:27:43.130Z,98090.50
2022-08-17T08:30:15.316Z,98090.98
2022-08-17T08:32:50.593Z,98082.27
2022-08-17T08:35:23.576Z,98087.17
2022-08-17T08:37:58.928Z,98080.21
2022-08-17T08:40:38.938Z,98074.76
2022-08-17T08:43:22.853Z,98072.84
2022-08-17T08:45:58.442Z,98075.13
2022-08-17T08:48:52.977Z,98065.34
2022-08-17T08:51:52.824Z,98062.44
2022-08-17T08:54:37.043Z,98067.45
2022-08-17T08:57:26.699Z,98068.17
2022-08-17T09:00:15.599Z,98067.31
2022-08-17T09:03:14.414Z,98064.54
2022-08-17T09:05:45.362Z,98061.94
2022-08-17T09:08:20.498Z,98062.72
2022-08-17T09:11:00.185Z,98065.71
2022-08-17T09:13:54.195Z,98063.80
2022-08-17T09:16:37.895Z,98057.95
2022-08-17T09:19:13.003Z,98061.79
2022-08-17T09:21:48.542Z,98063.30
2022-08-17T09:24:32.065Z,98063.25
2022-08-17T09:27:18.492Z,98067.06
2022-08-17T09:29:54.625Z,98066.45
2022-08-17T09:32:34.474Z,98064.33
2022-08-17T09:35:06.556Z,98064.39
2022-08-17T09:37:43.407Z,98065.83
2022-08-17T09:40:19.897Z,98067.77
2022-08-17T09:42:52.527Z,98062.52
2022-08-17T09:45:26.833Z,98058.20
2022-08-17T09:48:14.421Z,98060.88
2022-08-17T09:51:04.614Z,98058.27
2022-08-17T09:53:36.750Z,98054.35
2022-08-17T09:56:14.148Z,98061.94
2022-08-17T09:59:03.579Z,98055.77
2022-08-17T10:01:43.648Z,98056.18
2022-08-17T10:04:32.210Z,98047.73
2022-08-17T10:07:02.993Z,98040.91
2022-08-17T10:09:33.877Z,98047.64
2022-08-17T10:12:20.512Z,98040.98
2022-08-17T10:15:08.224Z,98034.92
2022-08-17T10:17:54.185Z,98032.59
2022-08-17T10:20:26.672Z,98038.89
2022-08-17T10:23:12.970Z,98042.19
2022-08-17T10:26:03.855Z,98036.14
2022-08-17T10:28:40.932Z,98039.48
2022-08-17T10:31:33.661Z,98040.56
2022-08-17T10:34:06.089Z,98039.36
2022-08-17T10:36:55.093Z,98039.82
2022-08-17T10:39:27.076Z,98041.56
2022-08-17T10:42:01.703Z,98040.89
2022-08-17T10:44:45.701Z,98040.72
2022-08-17T10:47:16.889Z,98040.70
2022-08-17T10:49:49.717Z,98040.58
2022-08-17T10:52:20.685Z,98038.02
2022-08-17T10:55:09.048Z,98041.35
2022-08-17T10:57:39.302Z,98039.15
2022-08-17T11:00:16.127Z,98038.96
2022-08-17T11:02:51.361Z,98031.61
2022-08-17T11:05:42.949Z,98033.54
2022-08-17T11:08:18.190Z,98027.91
2022-08-17T11:10:53.610Z,98032.29
2022-08-17T11:13:22.931Z,98030.72
2022-08-17T11:16:08.539Z,98031.55
2022-08-17T11:18:42.865Z,98030.36
2022-08-17T11:21:16.610Z,98027.80
2022-08-17T11:24:02.963Z,98023.52
2022-08-17T11:26:34.889Z,98032.31
2022-08-17T11:29:09.735Z,98031.98
2022-08-17T11:31:45.172Z,98028.61
2022-08-17T11:34:19.823Z,98032.39
2022-08-17T11:37:01.820Z,98033.90
2022-08-17T11:39:44.546Z,98032.73
2022-08-17T11:42:28.381Z,98024.80
2022-08-17T11:44:58.792Z,98024.77
2022-08-17T11:48:23.910Z,98023.64
2022-08-17T11:51:30.035Z,98020.47
2022-08-17T11:54:30.603Z,98016.41
2022-08-17T11:56:50.431Z,98012.45
2022-08-17T11:59:33.316Z,98010.61
2022-08-17T12:02:02.872Z,98012.98
2022-08-17T12:04:33.334Z,98015.55
2022-08-17T12:07:17.781Z,98008.15
2022-08-17T12:09:48.657Z,98002.55
2022-08-17T12:12:19.433Z,98006.73
2022-08-17T12:15:10.708Z,97998.33
2022-08-17T12:17:52.275Z,97994.02
2022-08-17T12:20:33.074Z,97993.88
2022-08-17T12:23:20.195Z,97988.79
2022-08-17T12:25:56.959Z,97982.83
2022-08-17T12:28:28.089Z,97986.88
2022-08-17T12:31:00.471Z,97990.51
2022-08-17T12:33:28.974Z,97992.95
2022-08-17T12:36:00.946Z,97991.61
2022-08-17T12:38:32.373Z,97995.84
2022-08-17T12:41:21.994Z,97993.46
2022-08-17T12:43:58.829Z,97992.23
2022-08-17T12:46:25.824Z,97991.75
2022-08-17T12:48:59.061Z,97996.73
2022-08-17T12:51:29.378Z,97997.18
2022-08-17T12:53:56.402Z,97997.04
2022-08-17T12:56:23.555Z,97998.11
2022-08-17T12:58:54.639Z,97990.86
2022-08-17T13:01:25.199Z,97993.60
2022-08-17T13:03:55.383Z,97991.42
2022-08-17T13:06:33.907Z,97987.91
2022-08-17T13:09:35.594Z,97982.50
2022-08-17T13:12:05.175Z,97979.83
2022-08-17T13:14:33.426Z,97971.99
2022-08-17T13:17:08.334Z,97977.84
2022-08-17T13:19:48.179Z,97982.89
2022-08-17T13:22:15.066Z,97980.25
2022-08-17T13:24:53.263Z,97975.95
2022-08-17T13:27:24.031Z,97980.95
2022-08-17T13:29:55.932Z,97980.84
2022-08-17T13:32:33.603Z,97982.16
2022-08-17T13:35:14.139Z,97979.99
2022-08-17T13:37:59.203Z,97979.48
2022-08-17T13:40:30.974Z,97977.97
2022-08-17T13:42:58.654Z,97977.67
2022-08-17T13:45:36.103Z,97980.27
2022-08-17T13:48:19.864Z,97973.34
2022-08-17T13:51:05.915Z,97970.50
2022-08-17T13:53:51.402Z,97965.73
2022-08-17T13:56:50.120Z,97965.23
2022-08-17T13:59:52.681Z,97972.45
2022-08-17T14:02:17.592Z,97971.29
2022-08-17T14:04:46.104Z,97974.71
2022-08-17T14:07:13.614Z,97978.83
2022-08-17T14:09:47.355Z,97966.40
2022-08-17T14:12:17.825Z,97973.73
2022-08-17T14:14:44.934Z,97972.86
2022-08-17T14:17:13.144Z,97975.64
2022-08-17T14:19:40.238Z,97977.45
2022-08-17T14:22:11.773Z,97977.75
2022-08-17T14:24:44.747Z,97975.69
2022-08-17T14:27:12.157Z,97977.34
2022-08-17T14:29:41.369Z,97978.91
2022-08-17T14:32:18.873Z,97971.37
2022-08-17T14:34:47.419Z,97975.46
2022-08-17T14:37:14.306Z,97978.67
2022-08-17T14:39:41.193Z,97982.75
2022-08-17T14:42:08.690Z,97979.23
2022-08-17T14:44:37.028Z,97984.96
2022-08-17T14:47:05.050Z,97979.86
2022-08-17T14:49:32.026Z,97988.39
2022-08-17T14:52:00.546Z,97988.56
2022-08-17T14:54:33.524Z,97982.77
2022-08-17T14:57:23.322Z,97978.22
2022-08-17T14:59:54.811Z,97980.20
2022-08-17T15:02:29.544Z,97973.48
2022-08-17T15:05:05.404Z,97974.27
2022-08-17T15:07:32.429Z,97979.19
2022-08-17T15:10:02.512Z,97976.79
2022-08-17T15:12:34.054Z,97976.31
2022-08-17T15:15:04.771Z,97973.15
2022-08-17T15:17:44.281Z,97979.89
2022-08-17T15:20:18.112Z,97983.06
2022-08-17T15:22:49.923Z,97985.55
2022-08-17T15:25:19.119Z,97979.63
2022-08-17T15:27:47.584Z,97978.35
2022-08-17T15:30:15.696Z,97985.08
2022-08-17T15:32:51.263Z,97979.63
2022-08-17T15:35:27.416Z,97975.88
2022-08-17T15:37:58.451Z,97974.11
2022-08-17T15:40:25.499Z,97974.77
2022-08-17T15:42:53.065Z,97974.90
2022-08-17T15:45:24.996Z,97974.43
2022-08-17T15:47:52.813Z,97977.23
2022-08-17T15:50:20.140Z,97977.35
2022-08-17T15:52:47.739Z,97977.02
2022-08-17T15:55:15.277Z,97979.49
2022-08-17T15:57:42.449Z,97979.32
2022-08-17T16:00:10.198Z,97973.48
2022-08-17T16:03:45.049Z,97972.63
2022-08-17T16:05:30.228Z,97970.98
2022-08-17T16:07:59.733Z,97971.96
2022-08-17T16:10:34.734Z,97972.90
2022-08-17T16:13:04.475Z,97973.15
2022-08-17T16:15:32.338Z,97970.68
2022-08-17T16:17:59.320Z,97976.04
2022-08-17T16:20:26.523Z,97979.89
2022-08-17T16:22:54.173Z,97983.84
2022-08-17T16:25:38.833Z,97984.25
2022-08-17T16:28:17.107Z,97984.17
2022-08-17T16:30:44.090Z,97982.52
2022-08-17T16:33:11.728Z,97984.07
2022-08-17T16:35:39.031Z,97983.75
2022-08-17T16:38:07.226Z,97982.84
2022-08-17T16:40:36.014Z,97989.38
2022-08-17T16:43:07.087Z,97990.09
2022-08-17T16:45:36.793Z,97991.27
2022-08-17T16:48:04.551Z,97998.76
2022-08-17T16:50:33.929Z,97997.57
2022-08-17T16:53:06.837Z,97999.27
2022-08-17T16:55:35.825Z,97999.25
2022-08-17T16:58:05.488Z,97998.33
2022-08-17T17:00:33.876Z,97997.39
2022-08-17T17:03:20.543Z,98003.62
2022-08-17T17:06:07.473Z,98004.52
2022-08-17T17:08:44.393Z,98007.47
2022-08-17T17:11:34.211Z,98006.11
2022-08-17T17:14:05.655Z,98014.41
2022-08-17T17:16:45.765Z,98013.91
2022-08-17T17:19:34.835Z,98017.16
2022-08-17T17:22:20.398Z,98022.92
2022-08-17T17:24:55.734Z,98023.45
2022-08-17T17:27:39.994Z,98031.23
2022-08-17T17:30:12.435Z,98032.33
2022-08-17T17:32:46.120Z,98035.00
2022-08-17T17:35:21.001Z,98037.10
2022-08-17T17:37:50.331Z,98040.31
2022-08-17T17:40:23.238Z,98041.17
2022-08-17T17:43:09.475Z,98041.63
2022-08-17T17:45:53.130Z,98034.02
2022-08-17T17:48:20.260Z,98046.13
2022-08-17T17:51:02.482Z,98050.02
2022-08-17T17:53:44.537Z,98060.77
2022-08-17T17:56:40.270Z,98063.48
2022-08-17T17:59:26.887Z,98070.36
2022-08-17T18:02:09.837Z,98072.63
2022-08-17T18:04:46.248Z,98081.14
2022-08-17T18:07:37.303Z,98083.95
2022-08-17T18:10:19.561Z,98080.73
2022-08-17T18:13:14.179Z,98079.65
2022-08-17T18:15:51.334Z,98086.85
2022-08-17T18:18:19.635Z,98089.17
2022-08-17T18:20:56.050Z,98087.17
2022-08-17T18:23:27.950Z,98091.36
2022-08-17T18:25:58.280Z,98097.63
2022-08-17T18:28:34.546Z,98097.50
2022-08-17T18:31:09.784Z,98091.88
2022-08-17T18:33:39.537Z,98098.80
2022-08-17T18:36:07.498Z,98103.30
2022-08-17T18:38:37.653Z,98113.52
2022-08-17T18:41:19.433Z,98111.27
2022-08-17T18:44:01.510Z,98110.17
2022-08-17T18:46:35.455Z,98123.65
2022-08-17T18:49:08.048Z,98121.16
2022-08-17T18:51:42.336Z,98119.10
2022-08-17T18:54:22.087Z,98119.64
2022-08-17T18:56:50.740Z,98124.25
2022-08-17T18:59:34.046Z,98120.59
2022-08-17T19:02:27.321Z,98123.47
2022-08-17T19:05:07.905Z,98127.27
2022-08-17T19:07:38.215Z,98122.61
2022-08-17T19:10:21.267Z,98118.99
2022-08-17T19:12:55.546Z,98126.13
2022-08-17T19:15:34.834Z,98129.85
2022-08-17T19:18:05.822Z,98130.89
2022-08-17T19:20:39.003Z,98130.80
2022-08-17T19:23:24.339Z,98131.02
2022-08-17T19:25:57.915Z,98135.09
2022-08-17T19:28:32.717Z,98136.37
2022-08-17T19:31:08.498Z,98134.94
2022-08-17T19:33:35.572Z,98141.23
2022-08-17T19:36:10.147Z,98147.13
2022-08-17T19:38:53.202Z,98146.30
2022-08-17T19:41:33.475Z,98145.40
2022-08-17T19:44:23.942Z,98146.89
2022-08-17T19:47:13.637Z,98150.19
2022-08-17T19:49:46.799Z,98153.62
2022-08-17T19:52:22.614Z,98153.98
2022-08-17T19:54:59.101Z,98153.75
2022-08-17T19:57:37.159Z,98155.34
2022-08-17T20:00:15.716Z,98156.34
2022-08-17T20:02:48.723Z,98157.77
2022-08-17T20:05:23.073Z,98159.59
2022-08-17T20:08:09.135Z,98163.44
2022-08-17T20:10:55.497Z,98163.12
2022-08-17T20:13:32.969Z,98160.75
2022-08-17T20:16:02.565Z,98158.31
2022-08-17T20:18:37.954Z,98166.23
2022-08-17T20:21:27.017Z,98163.53
2022-08-17T20:24:03.924Z,98158.17
2022-08-17T20:26:49.087Z,98153.23
2022-08-17T20:29:31.940Z,98154.60
2022-08-17T20:32:17.763Z,98154.20
2022-08-17T20:34:47.739Z,98154.42
2022-08-17T20:37:15.371Z,98153.17
2022-08-17T20:39:44.621Z,98143.55
2022-08-17T20:42:29.438Z,98150.59
2022-08-17T20:45:01.933Z,98147.55
2022-08-17T20:47:35.474Z,98161.81
2022-08-17T20:50:10.455Z,98164.13
2022-08-17T20:52:56.183Z,98168.12
2022-08-17T20:55:51.543Z,98165.78
2022-08-17T21:00:41.283Z,98161.77
2022-08-17T21:03:24.270Z,98162.73
2022-08-17T21:05:59.889Z,98161.67
2022-08-17T21:08:53.876Z,98151.88
2022-08-17T21:11:57.304Z,98151.39
2022-08-17T21:14:20.255Z,98155.70
2022-08-17T21:17:02.852Z,98153.16
2022-08-17T21:20:10.332Z,98149.63
2022-08-17T21:23:02.335Z,98151.34
2022-08-17T21:25:46.594Z,98156.95
2022-08-17T21:28:34.141Z,98154.36
2022-08-17T21:31:09.017Z,98155.21
2022-08-17T21:33:39.226Z,98164.52
2022-08-17T21:36:17.274Z,98167.85
2022-08-17T21:38:48.045Z,98170.14
2022-08-17T21:41:22.857Z,98171.05
2022-08-17T21:43:51.570Z,98166.55
2022-08-17T21:46:30.657Z,98163.95
2022-08-17T21:49:12.243Z,98166.27
2022-08-17T21:51:51.971Z,98172.45
2022-08-17T21:54:38.913Z,98174.75
2022-08-17T21:57:15.742Z,98172.70
2022-08-17T21:59:44.470Z,98161.52
2022-08-17T22:02:22.394Z,98159.84
2022-08-17T22:05:07.365Z,98155.35
2022-08-17T22:07:42.964Z,98149.43
2022-08-17T22:10:29.949Z,98143.31
2022-08-17T22:13:16.521Z,98139.17
2022-08-17T22:15:47.708Z,98140.40
2022-08-17T22:18:20.675Z,98139.95
2022-08-17T22:20:51.796Z,98140.56
2022-08-17T22:23:42.679Z,98144.12
2022-08-17T22:26:13.461Z,98142.40
2022-08-17T22:28:45.782Z,98146.26
2022-08-17T22:31:18.388Z,98144.00
2022-08-17T22:33:50.188Z,98142.15
2022-08-17T22:36:25.147Z,98137.90
2022-08-17T22:38:57.478Z,98135.21
2022-08-17T22:41:42.260Z,98131.31
2022-08-17T22:44:36.521Z,98124.81
2022-08-17T22:47:11.315Z,98121.37
2022-08-17T22:49:53.236Z,98122.21
2022-08-17T22:52:29.942Z,98120.34
2022-08-17T22:55:29.706Z,98122.42
2022-08-17T22:58:13.256Z,98119.45
2022-08-17T23:00:45.306Z,98119.36
2022-08-17T23:03:19.141Z,98124.91
2022-08-17T23:06:03.578Z,98131.35
2022-08-17T23:08:31.577Z,98137.17
2022-08-17T23:11:00.489Z,98130.77
2022-08-17T23:13:28.290Z,98143.28
2022-08-17T23:15:55.173Z,98143.43
2022-08-17T23:18:23.571Z,98152.55
2022-08-17T23:20:50.728Z,98154.79
2022-08-17T23:23:23.399Z,98154.21
2022-08-17T23:25:50.831Z,98158.85
2022-08-17T23:28:19.197Z,98162.97
2022-08-17T23:30:48.578Z,98161.88
2022-08-17T23:33:26.784Z,98158.48
2022-08-17T23:35:54.265Z,98162.56
2022-08-17T23:38:22.104Z,98165.04
2022-08-17T23:40:49.072Z,98164.70
2022-08-17T23:43:23.732Z,98169.46
2022-08-17T23:45:53.669Z,98172.59
2022-08-17T23:48:36.031Z,98174.73
2022-08-17T23:51:08.843Z,98171.79
2022-08-17T23:53:40.399Z,98176.40
2022-08-17T23:56:11.156Z,98179.08
2022-08-17T23:58:42.435Z,98180.50
